Time;durP1;ratioP1;P1;durP2;ratioP2;P2;SDS_P1;SDS_P2;PMS_P1;PMS_P2;Temp;Humidity;BMP_temperature;BMP_pressure;BME280_temperature;BME280_humidity;BME280_pressure;Samples;Min_cycle;Max_cycle;Signal;HPM_P1;HPM_P2
2023/07/08 00:01:59;;;;;;;4.73;4.43;;;15.20;99.90;;;;;;5043853;28;20498;-53
2023/07/08 00:04:25;;;;;;;6.37;4.30;;;15.20;99.90;;;;;;5051281;28;20571;-51
2023/07/08 00:06:52;;;;;;;4.67;4.27;;;15.20;99.90;;;;;;5049410;28;20458;-51
2023/07/08 00:09:18;;;;;;;4.27;4.07;;;15.20;99.90;;;;;;5052491;28;20564;-52
2023/07/08 00:11:45;;;;;;;6.70;4.50;;;15.20;99.90;;;;;;5047719;28;20600;-52
2023/07/08 00:14:11;;;;;;;4.93;4.53;;;15.10;99.90;;;;;;5051893;28;20528;-52
2023/07/08 00:16:39;;;;;;;5.10;4.70;;;15.10;99.90;;;;;;5052840;28;20480;-52
2023/07/08 00:19:09;;;;;;;4.80;4.43;;;15.10;99.90;;;;;;5052466;28;20477;-52
2023/07/08 00:21:37;;;;;;;4.80;4.30;;;15.00;99.90;;;;;;5051865;28;20492;-52
2023/07/08 00:24:03;;;;;;;5.10;4.53;;;15.00;99.90;;;;;;5051334;28;20462;-52
2023/07/08 00:26:31;;;;;;;4.67;4.27;;;14.90;99.90;;;;;;5047131;28;20545;-51
2023/07/08 00:28:58;;;;;;;5.50;4.60;;;14.90;99.90;;;;;;5052134;28;20556;-51
2023/07/08 00:31:25;;;;;;;5.23;4.83;;;14.90;99.90;;;;;;5051163;28;20492;-51
2023/07/08 00:33:55;;;;;;;4.93;4.53;;;14.90;99.90;;;;;;5052120;28;20476;-52
2023/07/08 00:36:24;;;;;;;8.40;5.20;;;14.90;99.90;;;;;;5052281;28;20491;-52
2023/07/08 00:38:50;;;;;;;5.73;4.80;;;14.80;99.90;;;;;;5046618;28;21007;-52
2023/07/08 00:41:22;;;;;;;5.40;4.90;;;14.80;99.90;;;;;;5051559;28;20580;-51
2023/07/08 00:43:50;;;;;;;4.60;4.30;;;14.80;99.90;;;;;;5049316;28;20461;-51
2023/07/08 00:46:30;;;;;;;4.63;4.33;;;14.80;99.90;;;;;;5055932;28;20516;-51
2023/07/08 00:49:04;;;;;;;4.20;3.87;;;14.80;99.90;;;;;;5048542;28;20523;-52
2023/07/08 00:51:30;;;;;;;5.43;4.90;;;14.70;99.90;;;;;;5049875;28;20537;-52
2023/07/08 00:53:57;;;;;;;6.03;4.40;;;14.70;99.90;;;;;;5050092;28;20537;-51
2023/07/08 00:56:29;;;;;;;7.73;5.40;;;14.60;99.90;;;;;;5051827;28;20541;-52
2023/07/08 00:59:00;;;;;;;4.60;4.30;;;14.60;99.90;;;;;;5042363;28;20545;-52
2023/07/08 01:01:28;;;;;;;5.00;4.53;;;14.60;99.90;;;;;;5044741;28;20577;-52
2023/07/08 01:03:56;;;;;;;5.57;5.03;;;14.60;99.90;;;;;;5044371;28;20813;-52
2023/07/08 01:06:31;;;;;;;10.03;4.57;;;14.50;99.90;;;;;;5044736;28;20545;-51
2023/07/08 01:09:00;;;;;;;5.20;4.70;;;14.50;99.90;;;;;;5049186;28;20550;-52
2023/07/08 01:11:26;;;;;;;12.47;4.90;;;14.40;99.90;;;;;;5050809;28;20481;-51
2023/07/08 01:13:54;;;;;;;7.53;4.80;;;14.40;99.90;;;;;;5050385;28;20494;-51
2023/07/08 01:16:21;;;;;;;12.90;4.47;;;14.40;99.90;;;;;;5051396;28;20457;-51
2023/07/08 01:18:52;;;;;;;8.87;4.40;;;14.40;99.90;;;;;;5055387;28;20489;-51
2023/07/08 01:21:34;;;;;;;5.10;4.60;;;14.50;99.90;;;;;;5050259;28;21014;-51
2023/07/08 01:24:04;;;;;;;5.20;4.70;;;14.40;99.90;;;;;;5048192;28;20465;-51
2023/07/08 01:26:33;;;;;;;9.53;5.30;;;14.40;99.90;;;;;;5048507;28;20551;-52
2023/07/08 01:29:01;;;;;;;5.20;4.80;;;14.40;99.90;;;;;;5054044;28;20519;-51
2023/07/08 01:31:27;;;;;;;5.47;4.30;;;14.30;99.90;;;;;;5048270;28;20493;-52
2023/07/08 01:33:54;;;;;;;7.97;4.33;;;14.40;99.90;;;;;;5048257;28;22176;-52
2023/07/08 01:36:21;;;;;;;8.20;5.27;;;14.30;99.90;;;;;;5043463;28;20959;-51
2023/07/08 01:38:48;;;;;;;4.50;4.20;;;14.30;99.90;;;;;;5054372;28;21042;-51
2023/07/08 01:41:18;;;;;;;5.80;5.30;;;14.20;99.90;;;;;;5051244;28;21081;-52
2023/07/08 01:43:45;;;;;;;5.20;4.70;;;14.20;99.90;;;;;;5049512;28;20462;-52
2023/07/08 01:46:16;;;;;;;6.10;4.53;;;14.10;99.90;;;;;;5050075;28;20464;-52
2023/07/08 01:48:47;;;;;;;5.63;4.30;;;14.00;99.90;;;;;;5050297;28;20570;-52
2023/07/08 01:51:14;;;;;;;5.37;4.87;;;14.00;99.90;;;;;;5046138;28;20545;-52
2023/07/08 01:53:43;;;;;;;4.77;4.47;;;14.00;99.90;;;;;;5040341;28;20491;-52
2023/07/08 01:56:11;;;;;;;5.00;4.53;;;14.00;99.90;;;;;;5049832;28;20500;-51
2023/07/08 01:58:39;;;;;;;4.87;4.47;;;13.90;99.90;;;;;;5047787;28;20525;-51
2023/07/08 02:01:06;;;;;;;5.50;4.63;;;13.90;99.90;;;;;;5047244;28;21047;-51
2023/07/08 02:03:33;;;;;;;8.13;5.13;;;13.80;99.90;;;;;;5047259;28;22272;-52
2023/07/08 02:05:59;;;;;;;5.23;4.77;;;13.80;99.90;;;;;;5050443;28;20515;-51
2023/07/08 02:08:26;;;;;;;5.87;5.47;;;13.80;99.90;;;;;;5050351;28;20528;-52
2023/07/08 02:10:55;;;;;;;5.90;5.30;;;13.80;99.90;;;;;;5049961;28;20486;-51
2023/07/08 02:13:23;;;;;;;5.03;4.63;;;13.80;99.90;;;;;;5047598;28;20472;-51
2023/07/08 02:15:51;;;;;;;5.80;5.37;;;13.70;99.90;;;;;;5049278;28;20525;-51
2023/07/08 02:18:19;;;;;;;5.20;4.80;;;13.70;99.90;;;;;;5049689;28;20500;-54
2023/07/08 02:20:46;;;;;;;8.00;5.37;;;13.50;99.90;;;;;;5048083;28;20461;-55
2023/07/08 02:23:12;;;;;;;6.57;5.17;;;13.60;99.90;;;;;;5049375;28;20908;-54
2023/07/08 02:25:39;;;;;;;6.97;5.40;;;13.60;99.90;;;;;;5049716;28;20905;-55
2023/07/08 02:28:05;;;;;;;5.47;5.10;;;13.60;99.90;;;;;;5050710;28;20516;-54
2023/07/08 02:30:32;;;;;;;4.97;4.67;;;13.50;99.90;;;;;;5057958;28;20457;-54
2023/07/08 02:32:59;;;;;;;6.03;5.53;;;13.40;99.90;;;;;;5044292;28;20493;-55
2023/07/08 02:35:28;;;;;;;5.90;5.40;;;13.40;99.90;;;;;;5047493;28;20549;-54
2023/07/08 02:37:55;;;;;;;6.20;5.80;;;13.40;99.90;;;;;;5052343;28;20509;-54
2023/07/08 02:40:23;;;;;;;5.43;4.93;;;13.40;99.90;;;;;;5052600;28;20482;-54
2023/07/08 02:42:49;;;;;;;6.90;5.43;;;13.30;95.90;;;;;;5046599;28;20487;-55
2023/07/08 02:45:17;;;;;;;5.73;5.33;;;13.30;99.90;;;;;;5049067;28;20469;-55
2023/07/08 02:47:44;;;;;;;5.90;5.40;;;13.20;95.50;;;;;;5045628;28;20535;-54
2023/07/08 02:50:13;;;;;;;5.70;5.20;;;13.20;92.60;;;;;;5048753;28;20489;-53
2023/07/08 02:52:40;;;;;;;5.43;5.13;;;13.20;96.30;;;;;;5051279;28;20497;-56
2023/07/08 02:55:07;;;;;;;5.57;5.00;;;13.10;94.00;;;;;;5053295;28;20908;-55
2023/07/08 02:57:33;;;;;;;7.50;5.00;;;13.00;96.80;;;;;;5053361;28;20490;-54
2023/07/08 03:00:00;;;;;;;5.90;5.33;;;13.00;99.90;;;;;;5047995;28;20485;-54
2023/07/08 03:02:27;;;;;;;5.27;4.87;;;13.00;95.80;;;;;;5049907;28;20539;-56
2023/07/08 03:04:54;;;;;;;6.17;5.67;;;12.90;93.10;;;;;;5049467;28;20500;-54
2023/07/08 03:07:22;;;;;;;6.17;5.53;;;12.90;94.20;;;;;;5048303;28;20545;-56
2023/07/08 03:09:49;;;;;;;5.77;5.30;;;12.90;92.30;;;;;;5049037;28;20516;-55
2023/07/08 03:12:15;;;;;;;6.40;5.77;;;12.90;82.20;;;;;;5046679;28;20495;-55
2023/07/08 03:14:42;;;;;;;6.93;5.30;;;12.80;89.70;;;;;;5051562;28;20533;-55
2023/07/08 03:17:08;;;;;;;5.80;5.40;;;12.80;87.00;;;;;;5047107;28;20537;-54
2023/07/08 03:19:35;;;;;;;5.40;4.90;;;12.90;89.00;;;;;;5051812;28;20504;-55
2023/07/08 03:22:02;;;;;;;6.03;5.53;;;12.80;90.60;;;;;;5051121;28;21033;-55
2023/07/08 03:24:30;;;;;;;6.43;5.83;;;12.80;89.40;;;;;;5052347;28;20552;-54
2023/07/08 03:26:59;;;;;;;5.30;4.90;;;12.70;86.00;;;;;;5052395;28;20509;-53
2023/07/08 03:29:26;;;;;;;5.73;5.23;;;12.70;86.30;;;;;;5051619;28;20489;-56
2023/07/08 03:31:52;;;;;;;5.97;5.40;;;12.70;82.40;;;;;;5053199;28;20485;-55
2023/07/08 03:34:19;;;;;;;6.27;5.67;;;12.70;80.70;;;;;;5054591;28;21973;-54
2023/07/08 03:36:49;;;;;;;6.90;6.20;;;12.80;83.00;;;;;;5054161;28;20485;-56
2023/07/08 03:39:16;;;;;;;5.60;5.20;;;12.80;81.40;;;;;;5050157;28;20489;-55
2023/07/08 03:41:43;;;;;;;5.53;5.03;;;12.80;81.30;;;;;;5059411;28;20521;-55
2023/07/08 03:44:10;;;;;;;6.07;5.60;;;12.80;79.70;;;;;;5053053;28;20478;-54
2023/07/08 03:46:37;;;;;;;5.80;5.30;;;12.80;77.70;;;;;;5045730;28;21003;-54
2023/07/08 03:49:03;;;;;;;7.67;5.63;;;12.80;76.10;;;;;;5054246;28;20918;-55
2023/07/08 03:51:32;;;;;;;6.87;6.07;;;12.80;75.50;;;;;;5053516;28;20469;-54
2023/07/08 03:53:59;;;;;;;5.93;5.43;;;12.90;73.40;;;;;;5050244;28;20864;-53
2023/07/08 03:56:26;;;;;;;6.43;5.93;;;12.90;72.80;;;;;;5052838;28;20932;-55
2023/07/08 03:58:53;;;;;;;8.20;6.40;;;12.90;69.80;;;;;;5051564;28;22080;-54
2023/07/08 04:01:23;;;;;;;6.10;5.67;;;13.00;69.90;;;;;;5047858;28;20480;-56
2023/07/08 04:03:52;;;;;;;6.30;5.77;;;13.00;69.20;;;;;;5052734;28;20503;-56
2023/07/08 04:06:20;;;;;;;5.60;5.00;;;13.10;68.70;;;;;;5052754;28;20485;-55
2023/07/08 04:08:47;;;;;;;6.70;5.77;;;13.20;69.00;;;;;;5052363;28;20519;-54
2023/07/08 04:11:17;;;;;;;6.20;5.67;;;13.30;68.90;;;;;;5051041;28;20959;-54
2023/07/08 04:13:43;;;;;;;5.87;5.47;;;13.30;69.20;;;;;;5051836;28;20910;-53
2023/07/08 04:16:17;;;;;;;6.53;5.27;;;13.40;71.70;;;;;;5044359;28;20484;-56
2023/07/08 04:18:44;;;;;;;6.57;6.07;;;13.40;70.50;;;;;;5051589;28;20517;-54
2023/07/08 04:21:10;;;;;;;7.23;5.50;;;13.50;69.30;;;;;;5052642;28;20469;-54
2023/07/08 04:23:37;;;;;;;9.43;5.30;;;13.60;70.40;;;;;;5051942;28;20498;-53
2023/07/08 04:26:03;;;;;;;11.30;5.93;;;13.60;69.50;;;;;;5052605;28;20963;-54
2023/07/08 04:28:30;;;;;;;5.73;5.23;;;13.70;68.80;;;;;;5047750;28;20569;-56
2023/07/08 04:30:56;;;;;;;6.63;5.97;;;13.80;69.70;;;;;;5050450;28;20497;-55
2023/07/08 04:33:24;;;;;;;6.67;6.00;;;13.80;68.60;;;;;;5052204;28;20462;-53
2023/07/08 04:35:51;;;;;;;6.40;5.80;;;13.90;67.90;;;;;;5052230;28;20478;-54
2023/07/08 04:38:21;;;;;;;6.10;5.60;;;13.90;67.50;;;;;;5047949;28;20520;-55
2023/07/08 04:40:48;;;;;;;11.80;6.03;;;14.10;66.70;;;;;;5062900;28;20568;-55
2023/07/08 04:43:15;;;;;;;6.80;5.27;;;14.10;65.50;;;;;;5051621;28;20485;-56
2023/07/08 04:45:44;;;;;;;5.80;4.90;;;14.20;64.50;;;;;;5052255;28;20461;-55
2023/07/08 04:48:13;;;;;;;9.40;5.50;;;14.30;64.20;;;;;;5051239;28;20587;-54
2023/07/08 04:50:43;;;;;;;5.50;5.00;;;14.40;64.30;;;;;;5051198;28;21002;-55
2023/07/08 04:53:10;;;;;;;5.70;5.13;;;14.50;65.60;;;;;;5053450;28;20462;-54
2023/07/08 04:55:38;;;;;;;5.53;5.00;;;14.60;68.50;;;;;;5049717;28;20908;-56
2023/07/08 04:58:05;;;;;;;9.40;5.20;;;14.80;71.00;;;;;;5048920;28;20585;-54
2023/07/08 05:00:31;;;;;;;5.23;4.80;;;14.90;74.80;;;;;;5046041;28;20571;-56
2023/07/08 05:02:58;;;;;;;6.20;5.60;;;15.00;79.60;;;;;;5047571;28;20517;-56
2023/07/08 05:05:25;;;;;;;5.73;5.33;;;15.00;82.50;;;;;;5047341;28;20489;-54
2023/07/08 05:07:53;;;;;;;7.40;5.57;;;15.20;83.70;;;;;;5047833;28;20519;-56
2023/07/08 05:10:20;;;;;;;7.13;5.77;;;15.30;84.30;;;;;;5048338;28;20548;-53
2023/07/08 05:12:48;;;;;;;8.77;5.70;;;15.40;89.60;;;;;;5046442;28;20482;-54
2023/07/08 05:15:15;;;;;;;5.13;4.53;;;15.50;91.60;;;;;;5052193;28;20486;-56
2023/07/08 05:17:43;;;;;;;5.27;4.73;;;15.60;95.00;;;;;;5042970;28;20489;-55
2023/07/08 05:20:12;;;;;;;12.43;4.83;;;15.60;97.40;;;;;;5043939;28;20556;-53
2023/07/08 05:22:39;;;;;;;12.93;4.50;;;15.70;99.40;;;;;;5050166;28;20506;-56
2023/07/08 05:25:08;;;;;;;7.67;4.70;;;15.80;99.90;;;;;;5049701;28;20473;-54
2023/07/08 05:27:35;;;;;;;7.43;4.83;;;15.90;99.90;;;;;;5049157;28;20497;-56
2023/07/08 05:30:01;;;;;;;5.20;4.80;;;16.00;99.90;;;;;;5047792;28;20458;-53
2023/07/08 05:32:28;;;;;;;9.03;4.53;;;16.10;99.90;;;;;;5046394;28;20490;-55
2023/07/08 05:34:55;;;;;;;4.97;4.47;;;16.20;99.90;;;;;;5047275;28;20527;-55
2023/07/08 05:37:25;;;;;;;5.23;4.83;;;16.30;99.90;;;;;;5049750;28;20951;-55
2023/07/08 05:39:51;;;;;;;5.10;4.70;;;16.40;99.90;;;;;;5047533;28;20477;-54
2023/07/08 05:42:20;;;;;;;6.97;4.77;;;16.50;99.90;;;;;;5047675;28;20580;-57
2023/07/08 05:44:46;;;;;;;7.63;5.13;;;16.70;99.90;;;;;;5050095;28;20575;-53
2023/07/08 05:47:13;;;;;;;7.23;4.40;;;16.80;99.90;;;;;;5049261;28;20481;-55
2023/07/08 05:49:40;;;;;;;5.63;5.07;;;16.90;99.90;;;;;;5054875;28;20516;-56
2023/07/08 05:52:10;;;;;;;4.80;4.40;;;17.00;99.90;;;;;;5048944;28;20960;-55
2023/07/08 05:54:37;;;;;;;6.40;4.60;;;17.10;99.90;;;;;;5045851;28;20457;-55
2023/07/08 05:57:04;;;;;;;4.20;3.90;;;17.20;99.90;;;;;;5049661;28;21092;-54
2023/07/08 05:59:32;;;;;;;3.90;3.70;;;17.30;99.90;;;;;;5050774;28;20532;-53
2023/07/08 06:01:58;;;;;;;15.67;4.70;;;17.50;99.90;;;;;;5049838;28;20991;-53
2023/07/08 06:04:25;;;;;;;12.50;4.30;;;17.50;99.90;;;;;;5042927;28;20466;-55
2023/07/08 06:06:52;;;;;;;4.60;4.30;;;17.60;99.90;;;;;;5050733;28;20490;-53
2023/07/08 06:09:18;;;;;;;5.10;4.60;;;17.70;99.90;;;;;;5048609;28;20485;-57
2023/07/08 06:11:45;;;;;;;4.97;4.50;;;17.80;99.90;;;;;;5054898;28;20473;-56
2023/07/08 06:14:11;;;;;;;4.47;4.07;;;17.90;99.90;;;;;;5054240;28;20477;-55
2023/07/08 06:16:39;;;;;;;5.63;4.50;;;18.00;99.90;;;;;;5055031;28;20477;-55
2023/07/08 06:19:06;;;;;;;6.00;4.17;;;18.10;99.90;;;;;;5054662;28;20532;-53
2023/07/08 06:21:33;;;;;;;4.80;4.30;;;18.20;99.90;;;;;;5052766;28;20461;-54
2023/07/08 06:24:00;;;;;;;4.33;3.93;;;18.30;99.90;;;;;;5050751;28;20485;-54
2023/07/08 06:26:26;;;;;;;6.27;4.50;;;18.50;99.90;;;;;;5054597;28;20456;-54
2023/07/08 06:28:53;;;;;;;5.00;4.27;;;18.60;99.90;;;;;;5054518;28;20497;-54
2023/07/08 06:31:19;;;;;;;6.47;4.40;;;18.60;99.90;;;;;;5043785;28;20482;-55
2023/07/08 06:33:47;;;;;;;4.27;3.87;;;18.80;99.90;;;;;;5048266;28;20493;-55
2023/07/08 06:36:14;;;;;;;4.80;4.40;;;19.00;99.90;;;;;;5052126;28;20553;-55
2023/07/08 06:38:40;;;;;;;4.20;3.80;;;19.10;99.90;;;;;;5052732;28;20501;-56
2023/07/08 06:41:07;;;;;;;4.80;4.10;;;19.20;99.90;;;;;;5052575;28;20490;-55
2023/07/08 06:43:33;;;;;;;4.80;4.40;;;19.30;99.90;;;;;;5050610;28;20520;-55
2023/07/08 06:46:00;;;;;;;4.47;4.17;;;19.50;99.90;;;;;;5053158;28;20486;-56
2023/07/08 06:48:26;;;;;;;4.80;4.40;;;19.50;99.90;;;;;;5051413;28;20517;-55
2023/07/08 06:50:55;;;;;;;4.37;4.07;;;19.60;81.10;;;;;;5050070;28;20557;-55
2023/07/08 06:53:22;;;;;;;5.60;4.20;;;19.70;23.80;;;;;;5047715;28;20540;-56
2023/07/08 06:55:48;;;;;;;4.80;4.00;;;19.90;35.70;;;;;;5044067;28;20502;-56
2023/07/08 06:58:15;;;;;;;4.73;4.33;;;19.90;32.40;;;;;;5051506;28;20850;-54
2023/07/08 07:00:42;;;;;;;5.17;4.60;;;20.00;35.10;;;;;;5051856;28;20485;-54
2023/07/08 07:03:09;;;;;;;6.00;3.73;;;20.10;41.80;;;;;;5049773;28;20520;-55
2023/07/08 07:05:36;;;;;;;5.10;4.03;;;20.20;41.40;;;;;;5053049;28;20489;-56
2023/07/08 07:08:05;;;;;;;4.50;3.60;;;20.30;40.70;;;;;;5047492;28;20509;-53
2023/07/08 07:10:31;;;;;;;9.83;4.50;;;20.50;48.90;;;;;;5041240;28;21041;-56
2023/07/08 07:12:58;;;;;;;7.10;4.13;;;20.60;50.90;;;;;;5050828;28;20485;-54
2023/07/08 07:15:24;;;;;;;6.13;4.13;;;20.70;71.80;;;;;;5043139;28;20553;-55
2023/07/08 07:17:51;;;;;;;4.20;3.90;;;20.70;65.40;;;;;;5050580;28;20461;-54
2023/07/08 07:20:18;;;;;;;5.13;4.63;;;20.80;74.50;;;;;;5046385;28;20565;-55
2023/07/08 07:22:44;;;;;;;4.17;3.77;;;21.00;70.90;;;;;;5053027;28;20508;-56
2023/07/08 07:25:12;;;;;;;4.67;4.23;;;21.00;75.50;;;;;;5050234;28;20462;-56
2023/07/08 07:27:39;;;;;;;5.07;4.17;;;21.20;84.90;;;;;;5046253;28;20513;-55
2023/07/08 07:30:07;;;;;;;7.13;3.90;;;21.30;84.30;;;;;;5049624;28;20538;-54
2023/07/08 07:32:35;;;;;;;5.77;3.70;;;21.50;88.50;;;;;;5051150;28;20516;-55
2023/07/08 07:35:01;;;;;;;4.03;3.73;;;21.60;87.80;;;;;;5051616;28;20999;-54
2023/07/08 07:37:28;;;;;;;6.70;4.40;;;21.70;99.00;;;;;;5044730;28;20557;-56
2023/07/08 07:39:54;;;;;;;6.17;4.17;;;21.90;99.90;;;;;;5050573;28;20502;-54
2023/07/08 07:42:22;;;;;;;9.20;4.70;;;22.10;99.90;;;;;;5049007;28;20550;-54
2023/07/08 07:44:49;;;;;;;8.03;3.87;;;22.30;99.90;;;;;;5050913;28;20504;-54
2023/07/08 07:47:15;;;;;;;4.73;4.30;;;22.40;99.90;;;;;;5050237;28;20466;-54
2023/07/08 07:49:42;;;;;;;4.60;4.30;;;22.60;99.90;;;;;;5050063;28;20520;-56
2023/07/08 07:52:10;;;;;;;4.23;3.83;;;22.70;99.90;;;;;;5048589;28;20469;-54
2023/07/08 07:54:37;;;;;;;5.83;3.73;;;23.00;99.90;;;;;;5046160;28;20828;-56
2023/07/08 07:57:03;;;;;;;4.53;3.70;;;23.20;99.90;;;;;;5045419;28;20553;-55
2023/07/08 07:59:31;;;;;;;10.53;4.93;;;23.30;99.90;;;;;;5047108;28;21062;-53
2023/07/08 08:01:58;;;;;;;5.37;3.77;;;23.40;99.90;;;;;;5038672;28;20578;-53
2023/07/08 08:04:24;;;;;;;4.03;3.73;;;23.50;99.90;;;;;;5045833;28;20572;-53
2023/07/08 08:06:51;;;;;;;9.77;4.07;;;23.60;99.90;;;;;;5048918;28;20516;-53
2023/07/08 08:09:17;;;;;;;8.10;3.93;;;23.70;99.90;;;;;;5044478;28;21019;-55
2023/07/08 08:11:44;;;;;;;5.77;3.97;;;23.80;99.90;;;;;;5043079;28;20999;-55
2023/07/08 08:14:11;;;;;;;3.90;3.70;;;23.80;99.90;;;;;;5045886;28;20841;-55
2023/07/08 08:16:39;;;;;;;8.23;3.60;;;24.00;99.90;;;;;;5047623;28;20462;-54
2023/07/08 08:19:05;;;;;;;8.90;3.43;;;24.10;99.90;;;;;;5048919;28;21070;-53
2023/07/08 08:21:32;;;;;;;5.77;3.50;;;24.20;99.90;;;;;;5048424;28;20569;-51
2023/07/08 08:24:00;;;;;;;10.20;4.10;;;24.40;99.90;;;;;;5046999;28;20509;-52
2023/07/08 08:26:27;;;;;;;4.60;2.77;;;24.50;99.90;;;;;;5044949;28;20579;-52
2023/07/08 08:28:53;;;;;;;11.40;3.20;;;24.60;99.90;;;;;;5048392;28;20564;-52
2023/07/08 08:31:20;;;;;;;6.83;3.67;;;24.80;99.90;;;;;;5045200;28;20553;-53
2023/07/08 08:33:48;;;;;;;3.57;2.90;;;25.00;99.90;;;;;;5045724;28;21027;-50
2023/07/08 08:36:14;;;;;;;3.77;3.40;;;25.20;99.90;;;;;;5048876;28;20505;-52
2023/07/08 08:38:41;;;;;;;5.03;2.93;;;25.40;99.90;;;;;;5048361;28;20509;-53
2023/07/08 08:41:13;;;;;;;4.03;3.20;;;25.60;99.90;;;;;;5048452;28;20557;-53
2023/07/08 08:43:41;;;;;;;5.40;3.73;;;25.60;99.90;;;;;;5040800;28;20501;-53
2023/07/08 08:46:12;;;;;;;2.70;2.50;;;25.70;99.90;;;;;;5049813;28;20540;-51
2023/07/08 08:48:44;;;;;;;11.13;2.77;;;25.80;99.90;;;;;;5043253;28;20995;-51
2023/07/08 08:51:15;;;;;;;5.50;3.60;;;25.80;99.90;;;;;;5053508;28;20478;-53
2023/07/08 08:53:42;;;;;;;6.17;3.30;;;26.10;99.90;;;;;;5051414;28;20450;-53
2023/07/08 08:56:15;;;;;;;11.13;3.10;;;26.20;99.90;;;;;;5051706;28;20492;-52
2023/07/08 08:58:45;;;;;;;7.40;2.83;;;26.40;99.90;;;;;;5049380;28;21028;-53
2023/07/08 09:01:13;;;;;;;4.30;3.00;;;26.50;99.90;;;;;;5051708;28;20481;-51
2023/07/08 09:03:47;;;;;;;3.40;3.10;;;26.60;99.90;;;;;;5049337;28;20577;-52
2023/07/08 09:06:20;;;;;;;3.40;3.10;;;26.70;99.90;;;;;;5050129;28;20465;-52
2023/07/08 09:08:47;;;;;;;3.00;2.80;;;26.80;99.90;;;;;;5051968;28;20500;-53
2023/07/08 09:11:28;;;;;;;2.70;2.50;;;27.10;99.90;;;;;;5051690;28;20450;-51
2023/07/08 09:13:55;;;;;;;4.37;3.07;;;27.70;99.90;;;;;;5051554;28;20500;-52
2023/07/08 09:16:36;;;;;;;3.67;2.60;;;27.90;99.90;;;;;;5051515;28;20466;-53
2023/07/08 09:19:10;;;;;;;7.37;2.90;;;28.10;99.90;;;;;;5048190;28;20544;-52
2023/07/08 09:21:45;;;;;;;4.00;3.10;;;28.70;99.90;;;;;;5055669;28;20493;-52
2023/07/08 09:24:17;;;;;;;3.50;2.43;;;29.30;99.90;;;;;;5051422;28;20516;-52
2023/07/08 09:26:46;;;;;;;3.27;2.13;;;29.30;99.90;;;;;;5051475;28;20496;-51
2023/07/08 09:29:12;;;;;;;2.57;2.37;;;29.10;99.90;;;;;;5051265;28;20466;-51
2023/07/08 09:31:42;;;;;;;3.83;2.23;;;29.00;99.90;;;;;;5050069;28;20489;-52
2023/07/08 09:34:11;;;;;;;2.27;2.07;;;28.70;99.90;;;;;;5051117;28;20565;-52
2023/07/08 09:36:42;;;;;;;2.47;2.27;;;28.70;99.90;;;;;;5048513;28;20454;-51
2023/07/08 09:39:12;;;;;;;2.70;2.60;;;28.60;99.90;;;;;;5048221;28;20906;-53
2023/07/08 09:41:40;;;;;;;4.83;2.37;;;28.60;99.90;;;;;;5051257;28;20450;-51
2023/07/08 09:44:16;;;;;;;6.87;2.47;;;28.90;99.90;;;;;;5047369;28;20478;-52
2023/07/08 09:46:43;;;;;;;6.40;1.80;;;28.90;99.90;;;;;;5054471;28;20520;-52
2023/07/08 09:49:18;;;;;;;2.47;2.20;;;29.00;78.00;;;;;;5055149;28;20497;-51
2023/07/08 09:51:49;;;;;;;2.70;2.33;;;29.10;99.90;;;;;;5062489;28;20489;-53
2023/07/08 09:54:16;;;;;;;4.30;2.50;;;29.10;99.90;;;;;;5049359;28;20561;-53
2023/07/08 09:56:55;;;;;;;2.00;1.90;;;29.10;99.90;;;;;;5050412;28;20443;-53
2023/07/08 09:59:25;;;;;;;2.20;2.10;;;29.20;99.90;;;;;;5035492;28;20873;-53
2023/07/08 10:01:52;;;;;;;2.30;2.17;;;29.40;94.20;;;;;;5050842;28;20609;-51
2023/07/08 10:04:20;;;;;;;2.80;2.10;;;29.40;23.40;;;;;;5055534;28;20511;-52
2023/07/08 10:06:48;;;;;;;2.47;2.27;;;29.50;81.60;;;;;;5055126;28;20970;-53
2023/07/08 10:09:20;;;;;;;7.80;2.70;;;29.60;81.90;;;;;;5054436;28;20470;-52
2023/07/08 10:11:52;;;;;;;2.40;2.10;;;29.90;23.20;;;;;;5060120;28;20445;-52
2023/07/08 10:14:26;;;;;;;2.33;2.23;;;30.10;26.10;;;;;;5054919;28;20802;-52
2023/07/08 10:16:52;;;;;;;3.10;2.20;;;30.10;24.20;;;;;;5053307;28;20492;-51
2023/07/08 10:19:21;;;;;;;2.40;2.00;;;30.00;22.10;;;;;;5053633;28;20525;-52
2023/07/08 10:22:00;;;;;;;13.00;2.53;;;30.00;24.00;;;;;;5057186;28;20486;-51
2023/07/08 10:24:38;;;;;;;5.53;2.03;;;30.10;23.60;;;;;;5054079;28;20547;-53
2023/07/08 10:27:16;;;;;;;2.37;2.17;;;30.50;23.90;;;;;;5048733;28;20465;-53
2023/07/08 10:29:49;;;;;;;1.90;1.80;;;30.80;24.20;;;;;;5053648;28;20540;-52
2023/07/08 10:32:35;;;;;;;2.30;2.03;;;30.90;26.20;;;;;;5057244;28;20970;-53
2023/07/08 10:35:12;;;;;;;3.30;1.83;;;31.50;29.20;;;;;;5051126;28;20442;-52
2023/07/08 10:37:52;;;;;;;2.60;2.40;;;31.90;32.60;;;;;;5053814;28;20469;-53
2023/07/08 10:40:31;;;;;;;5.00;2.10;;;31.50;33.20;;;;;;5047264;28;20481;-53
2023/07/08 10:43:18;;;;;;;4.93;2.50;;;31.40;34.80;;;;;;5047023;28;20549;-52
2023/07/08 10:45:54;;;;;;;2.80;2.13;;;31.60;33.70;;;;;;5050919;28;20917;-52
2023/07/08 10:48:46;;;;;;;3.03;1.70;;;32.10;34.50;;;;;;5053922;28;20472;-52
2023/07/08 10:51:22;;;;;;;4.93;2.07;;;32.10;30.90;;;;;;5056245;28;20489;-51
2023/07/08 10:54:12;;;;;;;6.43;2.10;;;31.60;32.40;;;;;;5052901;28;20472;-52
2023/07/08 10:56:47;;;;;;;2.03;1.90;;;31.70;29.10;;;;;;5045773;28;20537;-53
2023/07/08 10:59:25;;;;;;;4.30;2.23;;;31.80;29.10;;;;;;5049387;28;20476;-53
2023/07/08 11:02:09;;;;;;;2.30;1.93;;;31.30;31.70;;;;;;5054352;28;20524;-52
2023/07/08 11:04:50;;;;;;;2.13;1.93;;;31.50;30.80;;;;;;5046915;28;20477;-52
2023/07/08 11:07:24;;;;;;;3.53;1.93;;;31.70;33.00;;;;;;5053896;28;20508;-52
2023/07/08 11:09:57;;;;;;;4.97;2.40;;;31.90;31.60;;;;;;5052797;28;20517;-53
2023/07/08 11:12:30;;;;;;;2.40;2.20;;;31.90;30.20;;;;;;5054127;28;20473;-52
2023/07/08 11:15:04;;;;;;;2.40;2.10;;;31.70;30.90;;;;;;5052617;28;20477;-52
2023/07/08 11:17:37;;;;;;;2.70;2.50;;;31.50;31.00;;;;;;5051827;28;20507;-52
2023/07/08 11:20:16;;;;;;;2.37;1.93;;;31.20;29.50;;;;;;5058004;28;20473;-52
2023/07/08 11:22:50;;;;;;;1.73;1.40;;;31.20;30.40;;;;;;5062313;28;20474;-52
2023/07/08 11:25:21;;;;;;;2.03;1.93;;;31.30;30.00;;;;;;5046627;28;20568;-53
2023/07/08 11:27:52;;;;;;;2.50;2.17;;;31.80;29.80;;;;;;5052224;28;20500;-52
2023/07/08 11:30:24;;;;;;;4.90;2.20;;;31.80;31.90;;;;;;5052620;28;20466;-51
2023/07/08 11:32:58;;;;;;;2.13;2.03;;;32.00;29.70;;;;;;5052259;28;20489;-52
2023/07/08 11:35:34;;;;;;;3.40;2.43;;;32.00;32.40;;;;;;5053150;28;20570;-52
2023/07/08 11:38:02;;;;;;;2.40;2.20;;;31.80;32.40;;;;;;5053363;28;20497;-52
2023/07/08 11:40:31;;;;;;;2.70;1.90;;;32.00;31.80;;;;;;5053248;28;20958;-52
2023/07/08 11:43:03;;;;;;;2.53;2.40;;;31.80;31.30;;;;;;5045776;28;20601;-51
2023/07/08 11:45:33;;;;;;;2.50;2.03;;;31.30;32.30;;;;;;5051585;28;20486;-52
2023/07/08 11:48:07;;;;;;;2.77;2.47;;;31.10;29.20;;;;;;5049756;28;20517;-50
2023/07/08 11:50:37;;;;;;;10.93;2.13;;;31.20;31.80;;;;;;5050839;28;20907;-52
2023/07/08 11:53:11;;;;;;;7.50;2.50;;;31.00;32.10;;;;;;5045284;28;20901;-52
2023/07/08 11:55:43;;;;;;;4.00;2.10;;;31.20;32.90;;;;;;5044010;28;20493;-53
2023/07/08 11:58:21;;;;;;;6.20;2.20;;;31.30;33.30;;;;;;5041614;28;20512;-51
2023/07/08 12:00:55;;;;;;;2.50;2.30;;;31.00;30.80;;;;;;5050102;28;20462;-52
2023/07/08 12:03:23;;;;;;;3.23;1.77;;;31.20;31.30;;;;;;5053361;28;20987;-53
2023/07/08 12:05:50;;;;;;;5.53;2.70;;;31.00;33.00;;;;;;5044229;28;20493;-52
2023/07/08 12:08:20;;;;;;;2.00;1.90;;;31.20;30.10;;;;;;5048254;28;20493;-53
2023/07/08 12:10:51;;;;;;;2.43;2.23;;;31.50;32.30;;;;;;5055106;28;20453;-52
2023/07/08 12:13:22;;;;;;;2.27;2.17;;;31.60;32.80;;;;;;5047996;28;20458;-52
2023/07/08 12:15:49;;;;;;;2.60;2.13;;;31.50;31.70;;;;;;5048507;28;20537;-52
2023/07/08 12:18:22;;;;;;;3.13;2.50;;;31.50;34.00;;;;;;5050857;28;20517;-53
2023/07/08 12:20:53;;;;;;;2.27;2.07;;;31.80;34.80;;;;;;5048484;28;20493;-52
2023/07/08 12:23:22;;;;;;;3.40;2.17;;;32.00;32.40;;;;;;5048883;28;20485;-53
2023/07/08 12:25:51;;;;;;;6.00;2.17;;;32.00;33.60;;;;;;5042303;28;20482;-53
2023/07/08 12:28:18;;;;;;;2.63;2.43;;;31.80;34.30;;;;;;5041737;28;20505;-52
2023/07/08 12:30:47;;;;;;;2.43;2.23;;;31.80;33.70;;;;;;5045801;28;20485;-52
2023/07/08 12:33:17;;;;;;;2.03;1.93;;;31.90;34.30;;;;;;5050707;28;20476;-52
2023/07/08 12:35:44;;;;;;;2.77;2.40;;;31.70;35.10;;;;;;5047109;28;20545;-53
2023/07/08 12:38:20;;;;;;;6.70;2.20;;;31.50;35.10;;;;;;5044469;28;20614;-52
2023/07/08 12:40:47;;;;;;;6.07;2.97;;;31.60;33.00;;;;;;5050295;28;20489;-52
2023/07/08 12:43:16;;;;;;;2.60;2.40;;;32.20;33.90;;;;;;5041852;28;20493;-53
2023/07/08 12:45:43;;;;;;;2.17;2.00;;;33.30;35.00;;;;;;5048289;28;20569;-52
2023/07/08 12:48:10;;;;;;;2.60;2.40;;;34.00;37.70;;;;;;5055100;28;21036;-52
2023/07/08 12:50:36;;;;;;;4.83;2.57;;;34.80;35.60;;;;;;5050529;28;20492;-53
2023/07/08 12:53:09;;;;;;;4.40;2.17;;;33.60;38.50;;;;;;5050565;28;20488;-51
2023/07/08 12:55:37;;;;;;;3.83;2.00;;;33.40;34.00;;;;;;5049384;28;20959;-52